sensor_id;sensor_type;location;lat;lon;timestamp;temperature;humidity
16511;DHT22;8368;48.772;8.754;2022-09-09T00:01:49;13.70;99.90
16511;DHT22;8368;48.772;8.754;2022-09-09T00:04:32;13.80;99.90
16511;DHT22;8368;48.772;8.754;2022-09-09T00:15:00;13.80;99.90
16511;DHT22;8368;48.772;8.754;2022-09-09T00:19:57;13.90;99.90
16511;DHT22;8368;48.772;8.754;2022-09-09T00:22:28;13.90;99.90
16511;DHT22;8368;48.772;8.754;2022-09-09T00:25:10;13.80;99.90
16511;DHT22;8368;48.772;8.754;2022-09-09T00:27:47;13.80;99.90
16511;DHT22;8368;48.772;8.754;2022-09-09T00:30:23;13.80;99.90
16511;DHT22;8368;48.772;8.754;2022-09-09T00:32:54;13.80;99.90
16511;DHT22;8368;48.772;8.754;2022-09-09T00:38:02;13.80;99.90
16511;DHT22;8368;48.772;8.754;2022-09-09T00:40:45;13.80;99.90
16511;DHT22;8368;48.772;8.754;2022-09-09T00:43:37;13.80;99.90
16511;DHT22;8368;48.772;8.754;2022-09-09T00:46:24;13.80;99.90
16511;DHT22;8368;48.772;8.754;2022-09-09T00:49:21;13.90;99.90
16511;DHT22;8368;48.772;8.754;2022-09-09T00:57:33;13.90;99.90
16511;DHT22;8368;48.772;8.754;2022-09-09T01:05:38;13.70;99.90
16511;DHT22;8368;48.772;8.754;2022-09-09T01:11:11;13.80;99.90
16511;DHT22;8368;48.772;8.754;2022-09-09T01:13:42;13.70;99.90
16511;DHT22;8368;48.772;8.754;2022-09-09T01:16:12;13.70;99.90
16511;DHT22;8368;48.772;8.754;2022-09-09T01:18:43;13.70;99.90
16511;DHT22;8368;48.772;8.754;2022-09-09T01:21:16;13.70;99.90
16511;DHT22;8368;48.772;8.754;2022-09-09T01:24:08;13.70;99.90
16511;DHT22;8368;48.772;8.754;2022-09-09T01:26:44;13.70;99.90
16511;DHT22;8368;48.772;8.754;2022-09-09T01:29:13;13.70;99.90
16511;DHT22;8368;48.772;8.754;2022-09-09T01:31:53;13.70;99.90
16511;DHT22;8368;48.772;8.754;2022-09-09T01:34:19;13.70;99.90
16511;DHT22;8368;48.772;8.754;2022-09-09T01:36:57;13.80;99.90
16511;DHT22;8368;48.772;8.754;2022-09-09T01:39:24;13.90;99.90
16511;DHT22;8368;48.772;8.754;2022-09-09T01:41:51;14.10;99.90
16511;DHT22;8368;48.772;8.754;2022-09-09T01:44:17;14.30;99.90
16511;DHT22;8368;48.772;8.754;2022-09-09T01:46:44;14.30;99.90
16511;DHT22;8368;48.772;8.754;2022-09-09T01:49:09;14.20;99.90
16511;DHT22;8368;48.772;8.754;2022-09-09T01:51:38;14.20;99.90
16511;DHT22;8368;48.772;8.754;2022-09-09T01:54:05;14.10;99.90
16511;DHT22;8368;48.772;8.754;2022-09-09T02:04:48;13.60;99.90
16511;DHT22;8368;48.772;8.754;2022-09-09T02:07:39;13.50;99.90
16511;DHT22;8368;48.772;8.754;2022-09-09T02:10:18;13.40;99.90
16511;DHT22;8368;48.772;8.754;2022-09-09T02:12:48;13.30;99.90
16511;DHT22;8368;48.772;8.754;2022-09-09T02:15:32;13.30;99.90
16511;DHT22;8368;48.772;8.754;2022-09-09T02:18:01;13.20;99.90
16511;DHT22;8368;48.772;8.754;2022-09-09T02:20:32;13.10;99.90
16511;DHT22;8368;48.772;8.754;2022-09-09T02:22:59;13.10;99.90
16511;DHT22;8368;48.772;8.754;2022-09-09T02:25:28;13.00;99.90
16511;DHT22;8368;48.772;8.754;2022-09-09T02:27:57;13.00;99.90
16511;DHT22;8368;48.772;8.754;2022-09-09T02:30:29;13.00;99.90
16511;DHT22;8368;48.772;8.754;2022-09-09T02:32:58;13.00;99.90
16511;DHT22;8368;48.772;8.754;2022-09-09T02:35:27;12.90;99.90
16511;DHT22;8368;48.772;8.754;2022-09-09T02:37:58;12.80;99.90
16511;DHT22;8368;48.772;8.754;2022-09-09T02:40:25;12.80;99.90
16511;DHT22;8368;48.772;8.754;2022-09-09T02:42:51;12.80;99.90
16511;DHT22;8368;48.772;8.754;2022-09-09T02:45:19;12.80;99.90
16511;DHT22;8368;48.772;8.754;2022-09-09T02:50:32;12.80;99.90
16511;DHT22;8368;48.772;8.754;2022-09-09T02:53:20;12.80;99.90
16511;DHT22;8368;48.772;8.754;2022-09-09T02:55:52;12.80;99.90
16511;DHT22;8368;48.772;8.754;2022-09-09T02:58:20;12.80;99.90
16511;DHT22;8368;48.772;8.754;2022-09-09T03:00:47;12.70;99.90
16511;DHT22;8368;48.772;8.754;2022-09-09T03:03:13;12.70;99.90
16511;DHT22;8368;48.772;8.754;2022-09-09T03:05:39;12.70;99.90
16511;DHT22;8368;48.772;8.754;2022-09-09T03:08:05;12.60;99.90
16511;DHT22;8368;48.772;8.754;2022-09-09T03:10:33;12.50;99.90
16511;DHT22;8368;48.772;8.754;2022-09-09T03:12:59;12.50;99.90
16511;DHT22;8368;48.772;8.754;2022-09-09T03:15:25;12.50;99.90
16511;DHT22;8368;48.772;8.754;2022-09-09T03:17:54;12.40;99.90
16511;DHT22;8368;48.772;8.754;2022-09-09T03:20:20;12.40;99.90
16511;DHT22;8368;48.772;8.754;2022-09-09T03:22:46;12.40;99.90
16511;DHT22;8368;48.772;8.754;2022-09-09T03:25:11;12.40;99.90
16511;DHT22;8368;48.772;8.754;2022-09-09T03:27:37;12.30;99.90
16511;DHT22;8368;48.772;8.754;2022-09-09T03:30:02;12.40;99.90
16511;DHT22;8368;48.772;8.754;2022-09-09T03:32:28;12.30;99.90
16511;DHT22;8368;48.772;8.754;2022-09-09T03:34:54;12.30;99.90
16511;DHT22;8368;48.772;8.754;2022-09-09T03:37:20;12.30;99.90
16511;DHT22;8368;48.772;8.754;2022-09-09T03:39:45;12.30;99.90
16511;DHT22;8368;48.772;8.754;2022-09-09T03:42:14;12.20;99.90
16511;DHT22;8368;48.772;8.754;2022-09-09T03:44:44;12.30;99.90
16511;DHT22;8368;48.772;8.754;2022-09-09T03:47:19;12.20;99.90
16511;DHT22;8368;48.772;8.754;2022-09-09T03:49:45;12.20;99.90
16511;DHT22;8368;48.772;8.754;2022-09-09T03:52:11;12.20;99.90
16511;DHT22;8368;48.772;8.754;2022-09-09T03:54:36;12.20;99.90
16511;DHT22;8368;48.772;8.754;2022-09-09T03:57:02;12.30;99.90
16511;DHT22;8368;48.772;8.754;2022-09-09T03:59:28;12.30;99.90
16511;DHT22;8368;48.772;8.754;2022-09-09T04:01:54;12.30;99.90
16511;DHT22;8368;48.772;8.754;2022-09-09T04:04:20;12.30;99.90
16511;DHT22;8368;48.772;8.754;2022-09-09T04:06:46;12.40;99.90
16511;DHT22;8368;48.772;8.754;2022-09-09T04:09:14;12.50;99.90
16511;DHT22;8368;48.772;8.754;2022-09-09T04:11:39;12.50;99.90
16511;DHT22;8368;48.772;8.754;2022-09-09T04:14:05;12.50;99.90
16511;DHT22;8368;48.772;8.754;2022-09-09T04:16:32;12.50;99.90
16511;DHT22;8368;48.772;8.754;2022-09-09T04:18:58;12.50;99.90
16511;DHT22;8368;48.772;8.754;2022-09-09T04:21:25;12.50;99.90
16511;DHT22;8368;48.772;8.754;2022-09-09T04:23:50;12.40;99.90
16511;DHT22;8368;48.772;8.754;2022-09-09T04:26:16;12.30;99.90
16511;DHT22;8368;48.772;8.754;2022-09-09T04:28:42;12.30;99.90
16511;DHT22;8368;48.772;8.754;2022-09-09T04:31:10;12.30;99.90
16511;DHT22;8368;48.772;8.754;2022-09-09T04:33:36;12.30;99.90
16511;DHT22;8368;48.772;8.754;2022-09-09T04:36:04;12.30;99.90
16511;DHT22;8368;48.772;8.754;2022-09-09T04:38:30;12.30;99.90
16511;DHT22;8368;48.772;8.754;2022-09-09T04:40:56;12.30;99.90
16511;DHT22;8368;48.772;8.754;2022-09-09T04:43:22;12.30;99.90
16511;DHT22;8368;48.772;8.754;2022-09-09T04:45:49;12.30;99.90
16511;DHT22;8368;48.772;8.754;2022-09-09T04:48:15;12.20;99.90
16511;DHT22;8368;48.772;8.754;2022-09-09T04:50:41;12.20;99.90
16511;DHT22;8368;48.772;8.754;2022-09-09T04:53:06;12.20;99.90
16511;DHT22;8368;48.772;8.754;2022-09-09T04:55:33;12.20;99.90
16511;DHT22;8368;48.772;8.754;2022-09-09T04:58:05;12.20;99.90
16511;DHT22;8368;48.772;8.754;2022-09-09T05:00:31;12.30;99.90
16511;DHT22;8368;48.772;8.754;2022-09-09T05:02:56;12.30;99.90
16511;DHT22;8368;48.772;8.754;2022-09-09T05:05:22;12.30;99.90
16511;DHT22;8368;48.772;8.754;2022-09-09T05:07:47;12.20;99.90
16511;DHT22;8368;48.772;8.754;2022-09-09T05:10:13;12.20;99.90
16511;DHT22;8368;48.772;8.754;2022-09-09T05:12:40;12.30;99.90
16511;DHT22;8368;48.772;8.754;2022-09-09T05:15:06;12.30;99.90
16511;DHT22;8368;48.772;8.754;2022-09-09T05:17:32;12.30;99.90
16511;DHT22;8368;48.772;8.754;2022-09-09T05:19:59;12.30;99.90
16511;DHT22;8368;48.772;8.754;2022-09-09T05:22:24;12.30;99.90
16511;DHT22;8368;48.772;8.754;2022-09-09T05:24:50;12.30;99.90
16511;DHT22;8368;48.772;8.754;2022-09-09T05:27:18;12.40;99.90
16511;DHT22;8368;48.772;8.754;2022-09-09T05:29:47;12.50;99.90
16511;DHT22;8368;48.772;8.754;2022-09-09T05:32:13;12.50;99.90
16511;DHT22;8368;48.772;8.754;2022-09-09T05:34:40;12.50;99.90
16511;DHT22;8368;48.772;8.754;2022-09-09T05:37:06;12.60;99.90
16511;DHT22;8368;48.772;8.754;2022-09-09T05:39:33;12.60;99.90
16511;DHT22;8368;48.772;8.754;2022-09-09T05:41:59;12.70;99.90
16511;DHT22;8368;48.772;8.754;2022-09-09T05:44:24;12.70;99.90
16511;DHT22;8368;48.772;8.754;2022-09-09T05:46:52;12.70;99.90
16511;DHT22;8368;48.772;8.754;2022-09-09T05:49:19;12.80;99.90
16511;DHT22;8368;48.772;8.754;2022-09-09T05:51:45;12.80;99.90
16511;DHT22;8368;48.772;8.754;2022-09-09T05:54:10;12.80;99.90
16511;DHT22;8368;48.772;8.754;2022-09-09T05:56:37;12.80;99.90
16511;DHT22;8368;48.772;8.754;2022-09-09T05:59:02;12.70;99.90
16511;DHT22;8368;48.772;8.754;2022-09-09T06:01:31;12.70;99.90
16511;DHT22;8368;48.772;8.754;2022-09-09T06:03:56;12.60;99.90
16511;DHT22;8368;48.772;8.754;2022-09-09T06:06:36;12.60;99.90
16511;DHT22;8368;48.772;8.754;2022-09-09T06:09:03;12.50;99.90
16511;DHT22;8368;48.772;8.754;2022-09-09T06:11:32;12.50;99.90
16511;DHT22;8368;48.772;8.754;2022-09-09T06:13:58;12.50;99.90
16511;DHT22;8368;48.772;8.754;2022-09-09T06:16:25;12.50;99.90
16511;DHT22;8368;48.772;8.754;2022-09-09T06:18:52;12.50;99.90
16511;DHT22;8368;48.772;8.754;2022-09-09T06:21:30;12.50;99.90
16511;DHT22;8368;48.772;8.754;2022-09-09T06:23:56;12.60;99.90
16511;DHT22;8368;48.772;8.754;2022-09-09T06:26:24;12.70;99.90
16511;DHT22;8368;48.772;8.754;2022-09-09T06:28:51;12.80;99.90
16511;DHT22;8368;48.772;8.754;2022-09-09T06:31:20;13.00;99.90
16511;DHT22;8368;48.772;8.754;2022-09-09T06:33:50;13.10;99.90
16511;DHT22;8368;48.772;8.754;2022-09-09T06:36:18;13.20;99.90
16511;DHT22;8368;48.772;8.754;2022-09-09T06:38:45;13.30;99.90
16511;DHT22;8368;48.772;8.754;2022-09-09T06:41:12;13.50;99.90
16511;DHT22;8368;48.772;8.754;2022-09-09T06:43:38;13.70;99.90
16511;DHT22;8368;48.772;8.754;2022-09-09T06:46:14;13.90;99.90
16511;DHT22;8368;48.772;8.754;2022-09-09T06:48:40;14.00;99.90
16511;DHT22;8368;48.772;8.754;2022-09-09T06:51:09;14.10;99.90
16511;DHT22;8368;48.772;8.754;2022-09-09T06:53:37;14.20;99.90
16511;DHT22;8368;48.772;8.754;2022-09-09T06:56:24;14.30;99.90
16511;DHT22;8368;48.772;8.754;2022-09-09T06:58:52;14.50;99.90
16511;DHT22;8368;48.772;8.754;2022-09-09T07:01:19;14.60;99.90
16511;DHT22;8368;48.772;8.754;2022-09-09T07:03:47;14.80;99.90
16511;DHT22;8368;48.772;8.754;2022-09-09T07:06:15;15.00;99.90
16511;DHT22;8368;48.772;8.754;2022-09-09T07:08:48;15.10;99.90
16511;DHT22;8368;48.772;8.754;2022-09-09T07:11:14;15.30;99.90
16511;DHT22;8368;48.772;8.754;2022-09-09T07:13:40;15.50;99.90
16511;DHT22;8368;48.772;8.754;2022-09-09T07:16:16;15.60;99.90
16511;DHT22;8368;48.772;8.754;2022-09-09T07:18:43;15.80;99.90
16511;DHT22;8368;48.772;8.754;2022-09-09T07:21:14;15.90;99.90
16511;DHT22;8368;48.772;8.754;2022-09-09T07:23:40;16.00;99.90
16511;DHT22;8368;48.772;8.754;2022-09-09T07:26:15;16.10;99.90
16511;DHT22;8368;48.772;8.754;2022-09-09T07:28:41;16.20;99.90
16511;DHT22;8368;48.772;8.754;2022-09-09T07:31:09;16.30;99.90
16511;DHT22;8368;48.772;8.754;2022-09-09T07:33:38;16.20;99.90
16511;DHT22;8368;48.772;8.754;2022-09-09T07:38:30;16.10;99.90
16511;DHT22;8368;48.772;8.754;2022-09-09T07:41:07;16.20;99.90
16511;DHT22;8368;48.772;8.754;2022-09-09T07:43:37;16.30;99.90
16511;DHT22;8368;48.772;8.754;2022-09-09T07:46:03;16.40;99.90
16511;DHT22;8368;48.772;8.754;2022-09-09T07:48:29;16.50;99.90
16511;DHT22;8368;48.772;8.754;2022-09-09T07:51:10;16.40;99.90
16511;DHT22;8368;48.772;8.754;2022-09-09T07:53:40;16.50;99.90
16511;DHT22;8368;48.772;8.754;2022-09-09T07:56:08;16.40;99.90
16511;DHT22;8368;48.772;8.754;2022-09-09T07:58:38;16.30;99.90
16511;DHT22;8368;48.772;8.754;2022-09-09T08:01:13;16.30;99.90
16511;DHT22;8368;48.772;8.754;2022-09-09T08:03:39;16.30;99.90
16511;DHT22;8368;48.772;8.754;2022-09-09T08:06:07;16.40;99.90
16511;DHT22;8368;48.772;8.754;2022-09-09T08:08:34;16.60;99.90
16511;DHT22;8368;48.772;8.754;2022-09-09T08:11:14;16.90;99.90
16511;DHT22;8368;48.772;8.754;2022-09-09T08:13:41;17.20;99.90
16511;DHT22;8368;48.772;8.754;2022-09-09T08:16:13;17.40;99.90
16511;DHT22;8368;48.772;8.754;2022-09-09T08:18:39;17.40;99.90
16511;DHT22;8368;48.772;8.754;2022-09-09T08:21:13;17.50;99.90
16511;DHT22;8368;48.772;8.754;2022-09-09T08:23:43;17.40;99.90
16511;DHT22;8368;48.772;8.754;2022-09-09T08:26:12;17.40;99.90
16511;DHT22;8368;48.772;8.754;2022-09-09T08:28:39;17.30;99.90
16511;DHT22;8368;48.772;8.754;2022-09-09T08:31:13;17.20;99.90
16511;DHT22;8368;48.772;8.754;2022-09-09T08:33:39;17.20;99.90
16511;DHT22;8368;48.772;8.754;2022-09-09T08:36:08;17.10;99.90
16511;DHT22;8368;48.772;8.754;2022-09-09T08:38:34;17.10;99.90
16511;DHT22;8368;48.772;8.754;2022-09-09T08:41:44;17.10;99.90
16511;DHT22;8368;48.772;8.754;2022-09-09T08:52:36;17.00;99.90
16511;DHT22;8368;48.772;8.754;2022-09-09T08:57:39;17.20;99.90
16511;DHT22;8368;48.772;8.754;2022-09-09T09:00:05;17.20;99.90
16511;DHT22;8368;48.772;8.754;2022-09-09T09:05:36;17.10;99.90
16511;DHT22;8368;48.772;8.754;2022-09-09T09:08:30;17.00;99.90
16511;DHT22;8368;48.772;8.754;2022-09-09T09:10:58;16.90;99.90
16511;DHT22;8368;48.772;8.754;2022-09-09T09:18:56;17.00;99.90
16511;DHT22;8368;48.772;8.754;2022-09-09T09:21:34;17.00;99.90
16511;DHT22;8368;48.772;8.754;2022-09-09T09:24:02;16.90;99.90
16511;DHT22;8368;48.772;8.754;2022-09-09T09:26:34;17.00;99.90
16511;DHT22;8368;48.772;8.754;2022-09-09T09:29:12;17.10;99.90
16511;DHT22;8368;48.772;8.754;2022-09-09T09:31:38;17.20;99.90
16511;DHT22;8368;48.772;8.754;2022-09-09T09:34:03;17.50;99.90
16511;DHT22;8368;48.772;8.754;2022-09-09T09:36:41;17.70;99.90
16511;DHT22;8368;48.772;8.754;2022-09-09T09:39:07;17.80;99.90
16511;DHT22;8368;48.772;8.754;2022-09-09T09:41:40;18.00;99.90
16511;DHT22;8368;48.772;8.754;2022-09-09T09:44:28;18.30;99.90
16511;DHT22;8368;48.772;8.754;2022-09-09T09:47:16;18.60;99.90
16511;DHT22;8368;48.772;8.754;2022-09-09T09:49:53;18.80;99.90
16511;DHT22;8368;48.772;8.754;2022-09-09T09:52:23;18.90;99.90
16511;DHT22;8368;48.772;8.754;2022-09-09T09:54:50;18.90;99.90
16511;DHT22;8368;48.772;8.754;2022-09-09T09:57:18;18.90;99.90
16511;DHT22;8368;48.772;8.754;2022-09-09T09:59:44;18.80;99.90
16511;DHT22;8368;48.772;8.754;2022-09-09T10:02:24;18.70;99.90
16511;DHT22;8368;48.772;8.754;2022-09-09T10:05:16;18.60;99.90
16511;DHT22;8368;48.772;8.754;2022-09-09T10:07:42;18.50;99.90
16511;DHT22;8368;48.772;8.754;2022-09-09T10:10:27;18.50;99.90
16511;DHT22;8368;48.772;8.754;2022-09-09T10:13:09;18.50;99.90
16511;DHT22;8368;48.772;8.754;2022-09-09T10:16:07;18.60;99.90
16511;DHT22;8368;48.772;8.754;2022-09-09T10:19:00;18.80;99.90
16511;DHT22;8368;48.772;8.754;2022-09-09T10:24:39;19.20;99.90
16511;DHT22;8368;48.772;8.754;2022-09-09T10:30:01;19.40;99.90
16511;DHT22;8368;48.772;8.754;2022-09-09T10:32:46;19.30;99.90
16511;DHT22;8368;48.772;8.754;2022-09-09T10:35:24;19.20;99.90
16511;DHT22;8368;48.772;8.754;2022-09-09T10:38:16;19.00;99.90
16511;DHT22;8368;48.772;8.754;2022-09-09T10:41:13;18.60;99.90
16511;DHT22;8368;48.772;8.754;2022-09-09T10:44:06;18.30;99.90
16511;DHT22;8368;48.772;8.754;2022-09-09T10:52:29;17.10;99.90
16511;DHT22;8368;48.772;8.754;2022-09-09T10:55:10;16.80;99.90
16511;DHT22;8368;48.772;8.754;2022-09-09T10:57:44;16.50;99.90
16511;DHT22;8368;48.772;8.754;2022-09-09T11:03:05;16.30;99.90
16511;DHT22;8368;48.772;8.754;2022-09-09T11:05:42;16.30;99.90
16511;DHT22;8368;48.772;8.754;2022-09-09T11:08:14;16.20;99.90
16511;DHT22;8368;48.772;8.754;2022-09-09T11:10:49;16.20;99.90
16511;DHT22;8368;48.772;8.754;2022-09-09T11:13:40;16.30;99.90
16511;DHT22;8368;48.772;8.754;2022-09-09T11:16:20;16.30;99.90
16511;DHT22;8368;48.772;8.754;2022-09-09T11:18:48;16.30;99.90
16511;DHT22;8368;48.772;8.754;2022-09-09T11:21:21;16.20;99.90
16511;DHT22;8368;48.772;8.754;2022-09-09T11:23:56;16.10;99.90
16511;DHT22;8368;48.772;8.754;2022-09-09T11:26:31;16.00;99.90
16511;DHT22;8368;48.772;8.754;2022-09-09T11:34:44;16.60;99.90
16511;DHT22;8368;48.772;8.754;2022-09-09T11:37:48;16.90;99.90
16511;DHT22;8368;48.772;8.754;2022-09-09T11:42:47;17.20;99.90
16511;DHT22;8368;48.772;8.754;2022-09-09T11:45:24;17.40;99.90
16511;DHT22;8368;48.772;8.754;2022-09-09T11:47:54;17.50;99.90
16511;DHT22;8368;48.772;8.754;2022-09-09T11:52:47;17.50;99.90
16511;DHT22;8368;48.772;8.754;2022-09-09T11:55:26;17.50;99.90
16511;DHT22;8368;48.772;8.754;2022-09-09T11:58:00;17.50;99.90
16511;DHT22;8368;48.772;8.754;2022-09-09T12:00:39;17.40;99.90
16511;DHT22;8368;48.772;8.754;2022-09-09T12:05:58;17.60;99.90
16511;DHT22;8368;48.772;8.754;2022-09-09T12:08:28;17.60;99.90
16511;DHT22;8368;48.772;8.754;2022-09-09T12:10:56;17.70;99.90
16511;DHT22;8368;48.772;8.754;2022-09-09T12:13:24;17.80;99.90
16511;DHT22;8368;48.772;8.754;2022-09-09T12:15:52;18.10;99.90
16511;DHT22;8368;48.772;8.754;2022-09-09T12:18:39;18.30;99.90
16511;DHT22;8368;48.772;8.754;2022-09-09T12:21:40;18.50;99.90
16511;DHT22;8368;48.772;8.754;2022-09-09T12:24:11;18.70;99.90
16511;DHT22;8368;48.772;8.754;2022-09-09T12:26:47;18.80;99.90
16511;DHT22;8368;48.772;8.754;2022-09-09T12:31:55;19.10;99.90
16511;DHT22;8368;48.772;8.754;2022-09-09T12:34:38;19.20;99.90
16511;DHT22;8368;48.772;8.754;2022-09-09T12:39:39;19.80;99.90
16511;DHT22;8368;48.772;8.754;2022-09-09T12:42:16;19.70;99.90
16511;DHT22;8368;48.772;8.754;2022-09-09T12:44:57;19.80;99.90
16511;DHT22;8368;48.772;8.754;2022-09-09T12:49:51;20.00;99.90
16511;DHT22;8368;48.772;8.754;2022-09-09T12:52:43;20.20;99.90
16511;DHT22;8368;48.772;8.754;2022-09-09T12:55:20;20.20;99.90
16511;DHT22;8368;48.772;8.754;2022-09-09T12:57:48;20.30;99.90
16511;DHT22;8368;48.772;8.754;2022-09-09T13:00:24;20.50;99.90
16511;DHT22;8368;48.772;8.754;2022-09-09T13:02:56;20.60;99.90
16511;DHT22;8368;48.772;8.754;2022-09-09T13:05:35;20.60;99.90
16511;DHT22;8368;48.772;8.754;2022-09-09T13:08:12;20.50;99.90
16511;DHT22;8368;48.772;8.754;2022-09-09T13:10:47;20.50;99.90
16511;DHT22;8368;48.772;8.754;2022-09-09T13:13:15;20.60;99.90
16511;DHT22;8368;48.772;8.754;2022-09-09T13:15:59;20.80;99.90
16511;DHT22;8368;48.772;8.754;2022-09-09T13:18:36;20.70;99.90
16511;DHT22;8368;48.772;8.754;2022-09-09T13:21:04;21.10;99.90
16511;DHT22;8368;48.772;8.754;2022-09-09T13:23:33;21.30;99.90
16511;DHT22;8368;48.772;8.754;2022-09-09T13:26:06;21.30;99.90
16511;DHT22;8368;48.772;8.754;2022-09-09T13:28:33;21.50;99.90
16511;DHT22;8368;48.772;8.754;2022-09-09T13:31:02;21.50;99.90
16511;DHT22;8368;48.772;8.754;2022-09-09T13:38:27;21.20;99.90
16511;DHT22;8368;48.772;8.754;2022-09-09T13:41:05;20.90;99.90
16511;DHT22;8368;48.772;8.754;2022-09-09T13:43:37;21.00;99.90
16511;DHT22;8368;48.772;8.754;2022-09-09T13:49:18;21.00;99.90
16511;DHT22;8368;48.772;8.754;2022-09-09T13:51:47;21.00;99.90
16511;DHT22;8368;48.772;8.754;2022-09-09T13:54:16;21.10;99.90
16511;DHT22;8368;48.772;8.754;2022-09-09T13:56:43;21.10;99.90
16511;DHT22;8368;48.772;8.754;2022-09-09T13:59:12;21.00;99.90
16511;DHT22;8368;48.772;8.754;2022-09-09T14:01:38;21.10;99.90
16511;DHT22;8368;48.772;8.754;2022-09-09T14:04:04;21.10;99.90
16511;DHT22;8368;48.772;8.754;2022-09-09T14:06:32;21.00;99.90
16511;DHT22;8368;48.772;8.754;2022-09-09T14:08:58;20.90;99.90
16511;DHT22;8368;48.772;8.754;2022-09-09T14:11:24;20.70;99.90
16511;DHT22;8368;48.772;8.754;2022-09-09T14:13:49;20.50;99.90
16511;DHT22;8368;48.772;8.754;2022-09-09T14:16:16;20.60;99.90
16511;DHT22;8368;48.772;8.754;2022-09-09T14:18:43;20.50;99.90
16511;DHT22;8368;48.772;8.754;2022-09-09T14:21:09;20.50;99.90
16511;DHT22;8368;48.772;8.754;2022-09-09T14:23:35;20.50;99.90
16511;DHT22;8368;48.772;8.754;2022-09-09T14:26:00;20.60;99.90
16511;DHT22;8368;48.772;8.754;2022-09-09T14:28:26;20.60;99.90
16511;DHT22;8368;48.772;8.754;2022-09-09T14:30:53;20.70;99.90
16511;DHT22;8368;48.772;8.754;2022-09-09T14:33:19;20.80;99.90
16511;DHT22;8368;48.772;8.754;2022-09-09T14:35:44;20.90;99.90
16511;DHT22;8368;48.772;8.754;2022-09-09T14:38:10;21.00;99.90
16511;DHT22;8368;48.772;8.754;2022-09-09T14:40:37;20.80;99.90
16511;DHT22;8368;48.772;8.754;2022-09-09T14:43:03;20.70;99.90
16511;DHT22;8368;48.772;8.754;2022-09-09T14:45:29;20.60;99.90
16511;DHT22;8368;48.772;8.754;2022-09-09T14:47:55;20.50;99.90
16511;DHT22;8368;48.772;8.754;2022-09-09T14:50:21;20.30;99.90
16511;DHT22;8368;48.772;8.754;2022-09-09T14:52:48;20.30;99.90
16511;DHT22;8368;48.772;8.754;2022-09-09T14:55:14;20.30;99.90
16511;DHT22;8368;48.772;8.754;2022-09-09T14:57:40;20.40;99.90
16511;DHT22;8368;48.772;8.754;2022-09-09T15:00:07;20.40;99.90
16511;DHT22;8368;48.772;8.754;2022-09-09T15:02:33;20.50;99.90
16511;DHT22;8368;48.772;8.754;2022-09-09T15:04:59;20.50;99.90
16511;DHT22;8368;48.772;8.754;2022-09-09T15:07:25;20.40;99.90
16511;DHT22;8368;48.772;8.754;2022-09-09T15:09:51;20.40;99.90
16511;DHT22;8368;48.772;8.754;2022-09-09T15:12:18;20.30;99.90
16511;DHT22;8368;48.772;8.754;2022-09-09T15:14:44;20.20;99.90
16511;DHT22;8368;48.772;8.754;2022-09-09T15:17:10;19.90;99.90
16511;DHT22;8368;48.772;8.754;2022-09-09T15:19:36;19.70;99.90
16511;DHT22;8368;48.772;8.754;2022-09-09T15:22:04;19.50;99.90
16511;DHT22;8368;48.772;8.754;2022-09-09T15:24:31;19.40;99.90
16511;DHT22;8368;48.772;8.754;2022-09-09T15:26:57;19.20;99.90
16511;DHT22;8368;48.772;8.754;2022-09-09T15:29:23;19.10;99.90
16511;DHT22;8368;48.772;8.754;2022-09-09T15:31:48;19.00;99.90
16511;DHT22;8368;48.772;8.754;2022-09-09T15:34:14;18.90;99.90
16511;DHT22;8368;48.772;8.754;2022-09-09T15:36:44;18.80;99.90
16511;DHT22;8368;48.772;8.754;2022-09-09T15:39:16;18.70;99.90
16511;DHT22;8368;48.772;8.754;2022-09-09T15:41:43;18.60;99.90
16511;DHT22;8368;48.772;8.754;2022-09-09T15:44:09;18.60;99.90
16511;DHT22;8368;48.772;8.754;2022-09-09T15:46:43;18.50;99.90
16511;DHT22;8368;48.772;8.754;2022-09-09T15:49:20;18.40;99.90
16511;DHT22;8368;48.772;8.754;2022-09-09T15:51:57;18.40;99.90
16511;DHT22;8368;48.772;8.754;2022-09-09T15:54:24;18.20;99.90
16511;DHT22;8368;48.772;8.754;2022-09-09T15:56:52;17.80;99.90
16511;DHT22;8368;48.772;8.754;2022-09-09T15:59:20;17.50;99.90
16511;DHT22;8368;48.772;8.754;2022-09-09T16:01:46;17.20;99.90
16511;DHT22;8368;48.772;8.754;2022-09-09T16:04:11;17.00;99.90
16511;DHT22;8368;48.772;8.754;2022-09-09T16:06:37;16.60;99.90
16511;DHT22;8368;48.772;8.754;2022-09-09T16:09:06;16.40;99.90
16511;DHT22;8368;48.772;8.754;2022-09-09T16:11:34;16.20;99.90
16511;DHT22;8368;48.772;8.754;2022-09-09T16:14:00;15.90;99.90
16511;DHT22;8368;48.772;8.754;2022-09-09T16:16:28;15.70;99.90
16511;DHT22;8368;48.772;8.754;2022-09-09T16:18:56;15.30;99.90
16511;DHT22;8368;48.772;8.754;2022-09-09T16:21:26;15.20;99.90
16511;DHT22;8368;48.772;8.754;2022-09-09T16:23:54;15.10;99.90
16511;DHT22;8368;48.772;8.754;2022-09-09T16:26:20;15.20;99.90
16511;DHT22;8368;48.772;8.754;2022-09-09T16:28:46;15.30;99.90
16511;DHT22;8368;48.772;8.754;2022-09-09T16:31:22;15.30;99.90
16511;DHT22;8368;48.772;8.754;2022-09-09T16:33:49;15.30;99.90
16511;DHT22;8368;48.772;8.754;2022-09-09T16:36:18;15.30;99.90
16511;DHT22;8368;48.772;8.754;2022-09-09T16:38:45;15.30;99.90
16511;DHT22;8368;48.772;8.754;2022-09-09T16:41:12;15.20;99.90
16511;DHT22;8368;48.772;8.754;2022-09-09T16:43:39;15.10;99.90
16511;DHT22;8368;48.772;8.754;2022-09-09T16:46:17;15.00;99.90
16511;DHT22;8368;48.772;8.754;2022-09-09T16:48:44;14.90;99.90
16511;DHT22;8368;48.772;8.754;2022-09-09T16:51:37;14.90;99.90
16511;DHT22;8368;48.772;8.754;2022-09-09T16:54:05;14.80;99.90
16511;DHT22;8368;48.772;8.754;2022-09-09T16:56:33;14.70;99.90
16511;DHT22;8368;48.772;8.754;2022-09-09T16:59:05;14.70;99.90
16511;DHT22;8368;48.772;8.754;2022-09-09T17:01:33;14.60;99.90
16511;DHT22;8368;48.772;8.754;2022-09-09T17:04:01;14.60;99.90
16511;DHT22;8368;48.772;8.754;2022-09-09T17:06:29;14.60;99.90
16511;DHT22;8368;48.772;8.754;2022-09-09T17:08:56;14.60;99.90
16511;DHT22;8368;48.772;8.754;2022-09-09T17:11:23;14.60;99.90
16511;DHT22;8368;48.772;8.754;2022-09-09T17:13:49;14.50;99.90
16511;DHT22;8368;48.772;8.754;2022-09-09T17:16:17;14.50;99.90
16511;DHT22;8368;48.772;8.754;2022-09-09T17:18:43;14.50;99.90
16511;DHT22;8368;48.772;8.754;2022-09-09T17:21:13;14.50;99.90
16511;DHT22;8368;48.772;8.754;2022-09-09T17:23:40;14.50;99.90
16511;DHT22;8368;48.772;8.754;2022-09-09T17:26:07;14.60;99.90
16511;DHT22;8368;48.772;8.754;2022-09-09T17:28:34;14.80;99.90
16511;DHT22;8368;48.772;8.754;2022-09-09T17:31:01;14.80;99.90
16511;DHT22;8368;48.772;8.754;2022-09-09T17:33:29;14.80;99.90
16511;DHT22;8368;48.772;8.754;2022-09-09T17:35:59;14.70;99.90
16511;DHT22;8368;48.772;8.754;2022-09-09T17:38:26;14.70;99.90
16511;DHT22;8368;48.772;8.754;2022-09-09T17:41:05;14.60;99.90
16511;DHT22;8368;48.772;8.754;2022-09-09T17:43:32;14.50;99.90
16511;DHT22;8368;48.772;8.754;2022-09-09T17:46:19;14.50;99.90
16511;DHT22;8368;48.772;8.754;2022-09-09T17:48:49;14.50;99.90
16511;DHT22;8368;48.772;8.754;2022-09-09T17:51:18;14.40;99.90